createdAt,value
2019-02-18T00:00:42.081Z,94136.22
2019-02-18T00:03:10.700Z,94133.22
2019-02-18T00:08:40.268Z,94128.98
2019-02-18T00:11:08.501Z,94125.99
2019-02-18T00:13:36.986Z,94118.92
2019-02-18T00:19:06.405Z,94121.30
2019-02-18T00:21:34.932Z,94123.34
2019-02-18T00:24:03.058Z,94124.48
2019-02-18T00:26:31.741Z,94125.04
2019-02-18T00:28:59.629Z,94123.31
2019-02-18T00:31:27.920Z,94124.98
2019-02-18T00:34:08.578Z,94125.91
2019-02-18T00:36:36.252Z,94125.98
2019-02-18T00:39:05.343Z,94124.53
2019-02-18T00:41:33.526Z,94131.22
2019-02-18T00:44:01.435Z,94121.70
2019-02-18T00:46:29.982Z,94124.96
2019-02-18T00:48:58.598Z,94123.75
2019-02-18T00:51:26.536Z,94115.69
2019-02-18T00:53:55.180Z,94120.55
2019-02-18T00:56:23.988Z,94116.24
2019-02-18T00:58:52.339Z,94114.00
2019-02-18T01:01:20.307Z,94109.63
2019-02-18T01:03:48.583Z,94107.53
2019-02-18T01:06:16.456Z,94113.26
2019-02-18T01:08:44.817Z,94112.00
2019-02-18T01:11:12.631Z,94110.64
2019-02-18T01:13:40.774Z,94108.48
2019-02-18T01:16:08.682Z,94108.62
2019-02-18T01:18:36.581Z,94107.67
2019-02-18T01:21:05.220Z,94104.63
2019-02-18T01:23:33.109Z,94105.99
2019-02-18T01:26:01.366Z,94107.92
2019-02-18T01:28:29.659Z,94104.39
2019-02-18T01:30:57.576Z,94106.00
2019-02-18T01:33:26.155Z,94103.30
2019-02-18T01:35:54.416Z,94101.56
2019-02-18T01:38:22.641Z,94102.92
2019-02-18T01:40:50.550Z,94102.47
2019-02-18T01:43:18.948Z,94094.81
2019-02-18T01:45:47.513Z,94098.87
2019-02-18T01:48:15.392Z,94099.41
2019-02-18T01:50:43.621Z,94100.23
2019-02-18T01:53:11.870Z,94091.21
2019-02-18T01:55:40.146Z,94090.52
2019-02-18T01:58:08.524Z,94085.48
2019-02-18T02:00:37.137Z,94089.54
2019-02-18T02:03:05.708Z,94078.13
2019-02-18T02:05:33.897Z,94086.85
2019-02-18T02:08:02.485Z,94083.30
2019-02-18T02:10:30.432Z,94083.17
2019-02-18T02:13:37.086Z,94081.52
2019-02-18T02:16:08.129Z,94075.64
2019-02-18T02:18:35.901Z,94076.50
2019-02-18T02:21:04.508Z,94066.64
2019-02-18T02:23:33.091Z,94061.01
2019-02-18T02:26:01.381Z,94060.84
2019-02-18T02:28:29.987Z,94059.11
2019-02-18T02:31:00.773Z,94056.13
2019-02-18T02:33:34.919Z,94060.58
2019-02-18T02:36:02.542Z,94056.81
2019-02-18T02:38:31.105Z,94057.45
2019-02-18T02:40:59.692Z,94058.17
2019-02-18T02:43:28.260Z,94056.37
2019-02-18T02:45:56.539Z,94059.25
2019-02-18T02:48:24.417Z,94050.93
2019-02-18T02:50:52.585Z,94049.74
2019-02-18T02:53:21.129Z,94053.31
2019-02-18T02:55:49.434Z,94055.77
2019-02-18T02:58:17.837Z,94048.17
2019-02-18T03:00:46.494Z,94048.41
2019-02-18T03:03:15.129Z,94042.89
2019-02-18T03:05:43.348Z,94046.23
2019-02-18T03:08:19.862Z,94046.17
2019-02-18T03:10:48.373Z,94045.66
2019-02-18T03:13:16.685Z,94044.55
2019-02-18T03:15:45.332Z,94039.52
2019-02-18T03:18:13.274Z,94040.30
2019-02-18T03:20:41.582Z,94032.69
2019-02-18T03:23:10.223Z,94031.73
2019-02-18T03:25:38.413Z,94027.81
2019-02-18T03:28:45.061Z,94025.57
2019-02-18T03:31:32.678Z,94024.63
2019-02-18T03:34:05.009Z,94027.49
2019-02-18T03:36:33.239Z,94027.41
2019-02-18T03:39:01.178Z,94025.05
2019-02-18T03:41:29.381Z,94026.84
2019-02-18T03:43:57.176Z,94028.94
2019-02-18T03:46:25.083Z,94027.25
2019-02-18T03:48:53.614Z,94028.30
2019-02-18T03:51:21.889Z,94028.90
2019-02-18T03:53:50.136Z,94029.51
2019-02-18T03:56:18.773Z,94029.73
2019-02-18T03:58:47.100Z,94028.06
2019-02-18T04:01:15.335Z,94026.67
2019-02-18T04:03:43.596Z,94023.11
2019-02-18T04:06:11.817Z,94025.59
2019-02-18T04:08:43.026Z,94025.07
2019-02-18T04:11:17.137Z,94023.39
2019-02-18T04:13:45.091Z,94024.14
2019-02-18T04:16:13.385Z,94019.28
2019-02-18T04:18:41.977Z,94027.20
2019-02-18T04:21:10.499Z,94022.18
2019-02-18T04:23:38.442Z,94018.23
2019-02-18T04:26:06.968Z,94025.44
2019-02-18T04:28:35.308Z,94026.05
2019-02-18T04:31:03.896Z,94020.64
2019-02-18T04:33:31.786Z,94022.06
2019-02-18T04:36:00.041Z,94019.75
2019-02-18T04:38:28.081Z,94021.01
2019-02-18T04:40:56.758Z,94023.31
2019-02-18T04:43:25.197Z,94026.57
2019-02-18T04:45:53.436Z,94022.47
2019-02-18T04:48:22.005Z,94019.08
2019-02-18T04:50:50.784Z,94022.00
2019-02-18T04:53:18.227Z,94021.23
2019-02-18T04:55:45.406Z,94022.76
2019-02-18T04:58:13.613Z,94019.48
2019-02-18T05:00:41.853Z,94017.83
2019-02-18T05:03:09.762Z,94019.36
2019-02-18T05:05:38.001Z,94017.94
2019-02-18T05:08:05.927Z,94026.43
2019-02-18T05:10:34.247Z,94026.66
2019-02-18T05:13:02.875Z,94024.80
2019-02-18T05:15:31.438Z,94021.56
2019-02-18T05:17:59.306Z,94021.71
2019-02-18T05:20:27.892Z,94018.36
2019-02-18T05:22:55.786Z,94017.95
2019-02-18T05:25:24.368Z,94015.42
2019-02-18T05:27:52.741Z,94013.78
2019-02-18T05:30:20.958Z,94015.95
2019-02-18T05:32:48.818Z,94015.81
2019-02-18T05:35:16.773Z,94015.58
2019-02-18T05:37:45.359Z,94012.44
2019-02-18T05:40:13.238Z,94004.91
2019-02-18T05:42:41.887Z,94008.42
2019-02-18T05:45:10.028Z,94008.54
2019-02-18T05:47:37.902Z,94003.45
2019-02-18T05:50:06.466Z,94003.87
2019-02-18T05:52:35.171Z,94004.36
2019-02-18T05:55:03.239Z,94008.95
2019-02-18T05:57:31.447Z,94009.72
2019-02-18T05:59:59.994Z,94006.69
2019-02-18T06:02:28.608Z,94010.64
2019-02-18T06:04:56.076Z,94012.87
2019-02-18T06:07:24.748Z,94014.78
2019-02-18T06:09:53.013Z,94009.58
2019-02-18T06:12:21.226Z,94009.09
2019-02-18T06:14:49.809Z,94006.64
2019-02-18T06:17:18.083Z,94007.53
2019-02-18T06:19:46.631Z,94007.64
2019-02-18T06:22:15.248Z,94001.64
2019-02-18T06:24:43.452Z,94002.96
2019-02-18T06:27:11.759Z,94008.77
2019-02-18T06:29:40.318Z,94005.06
2019-02-18T06:32:08.228Z,94001.39
2019-02-18T06:34:36.794Z,94005.56
2019-02-18T06:37:04.644Z,94005.13
2019-02-18T06:39:40.649Z,94010.55
2019-02-18T06:42:11.176Z,94003.19
2019-02-18T06:47:31.941Z,94010.77
2019-02-18T06:50:00.514Z,94015.43
2019-02-18T06:52:29.043Z,94013.22
2019-02-18T06:54:57.675Z,94016.41
2019-02-18T06:57:44.948Z,94021.21
2019-02-18T07:00:32.763Z,94024.91
2019-02-18T07:03:19.919Z,94032.77
2019-02-18T07:05:54.388Z,94030.32
2019-02-18T07:08:42.217Z,94031.78
2019-02-18T07:11:29.940Z,94026.93
2019-02-18T07:13:58.563Z,94032.92
2019-02-18T07:16:26.807Z,94026.16
2019-02-18T07:18:54.689Z,94028.19
2019-02-18T07:21:22.983Z,94036.89
2019-02-18T07:23:50.738Z,94030.96
2019-02-18T07:26:19.262Z,94038.50
2019-02-18T07:28:47.729Z,94029.51
2019-02-18T07:31:15.938Z,94025.95
2019-02-18T07:33:43.505Z,94026.17
2019-02-18T07:36:12.156Z,94027.76
2019-02-18T07:38:39.717Z,94024.48
2019-02-18T07:41:08.003Z,94023.44
2019-02-18T07:43:36.600Z,94017.12
2019-02-18T07:46:05.183Z,94020.17
2019-02-18T07:48:33.731Z,94022.70
2019-02-18T07:51:02.367Z,94021.06
2019-02-18T07:53:30.888Z,94016.00
2019-02-18T07:55:59.599Z,94017.61
2019-02-18T07:58:28.224Z,94015.86
2019-02-18T08:00:56.772Z,94019.23
2019-02-18T08:03:25.492Z,94015.05
2019-02-18T08:05:54.033Z,94016.47
2019-02-18T08:08:22.579Z,94019.58
2019-02-18T08:10:51.391Z,94017.66
2019-02-18T08:13:20.003Z,94017.48
2019-02-18T08:15:48.249Z,94018.55
2019-02-18T08:18:16.802Z,94017.53
2019-02-18T08:20:45.167Z,94014.57
2019-02-18T08:23:13.825Z,94009.73
2019-02-18T08:25:42.116Z,94006.88
2019-02-18T08:28:10.388Z,94010.25
2019-02-18T08:30:38.663Z,94002.37
2019-02-18T08:33:06.977Z,94005.39
2019-02-18T08:35:34.907Z,94006.70
2019-02-18T08:38:03.359Z,94002.20
2019-02-18T08:40:31.902Z,93999.78
2019-02-18T08:43:00.265Z,94000.78
2019-02-18T08:45:28.859Z,94000.13
2019-02-18T08:47:56.768Z,93996.50
2019-02-18T08:50:25.418Z,93997.06
2019-02-18T08:52:54.004Z,93994.67
2019-02-18T08:55:21.944Z,93987.73
2019-02-18T08:57:50.690Z,93989.52
2019-02-18T09:00:18.432Z,93984.17
2019-02-18T09:02:46.692Z,93983.83
2019-02-18T09:05:15.391Z,93980.59
2019-02-18T09:07:44.013Z,93976.10
2019-02-18T09:10:12.097Z,93976.18
2019-02-18T09:12:40.834Z,93968.27
2019-02-18T09:15:09.574Z,93973.78
2019-02-18T09:17:38.090Z,93966.69
2019-02-18T09:20:07.044Z,93973.11
2019-02-18T09:22:54.863Z,93967.25
2019-02-18T09:28:06.393Z,93967.33
2019-02-18T09:33:31.684Z,93956.41
2019-02-18T09:36:00.674Z,93954.16
2019-02-18T09:38:28.554Z,93953.95
2019-02-18T09:40:56.552Z,93945.17
2019-02-18T09:43:24.798Z,93934.87
2019-02-18T09:45:53.085Z,93932.86
2019-02-18T09:48:21.818Z,93926.41
2019-02-18T09:50:50.090Z,93931.27
2019-02-18T09:53:18.534Z,93922.80
2019-02-18T09:55:46.858Z,93920.61
2019-02-18T09:58:14.842Z,93920.91
2019-02-18T10:00:43.483Z,93913.69
2019-02-18T10:03:11.824Z,93915.85
2019-02-18T10:05:40.506Z,93913.08
2019-02-18T10:08:08.800Z,93910.74
2019-02-18T10:10:37.073Z,93912.09
2019-02-18T10:13:05.048Z,93906.91
2019-02-18T10:15:33.318Z,93905.00
2019-02-18T10:18:02.014Z,93901.84
2019-02-18T10:20:29.998Z,93898.05
2019-02-18T10:22:58.629Z,93892.34
2019-02-18T10:25:27.370Z,93884.11
2019-02-18T10:27:55.872Z,93883.20
2019-02-18T10:30:24.665Z,93882.87
2019-02-18T10:32:53.045Z,93873.92
2019-02-18T10:35:21.428Z,93869.16
2019-02-18T10:37:55.087Z,93864.43
2019-02-18T10:40:25.809Z,93868.09
2019-02-18T10:43:06.585Z,93856.64
2019-02-18T10:45:34.580Z,93856.64
2019-02-18T10:48:02.684Z,93865.68
2019-02-18T10:50:31.074Z,93860.14
2019-02-18T10:53:08.022Z,93861.88
2019-02-18T10:58:19.078Z,93850.90
2019-02-18T11:00:47.377Z,93850.92
2019-02-18T11:03:15.286Z,93848.13
2019-02-18T11:05:44.045Z,93844.30
2019-02-18T11:08:12.508Z,93850.28
2019-02-18T11:10:40.791Z,93845.70
2019-02-18T11:13:09.593Z,93846.67
2019-02-18T11:15:38.350Z,93835.34
2019-02-18T11:18:07.225Z,93829.05
2019-02-18T11:20:36.022Z,93820.93
2019-02-18T11:23:05.044Z,93822.80
2019-02-18T11:25:33.423Z,93820.80
2019-02-18T11:28:01.761Z,93815.00
2019-02-18T11:30:29.825Z,93812.66
2019-02-18T11:32:58.646Z,93805.47
2019-02-18T11:35:26.955Z,93796.00
2019-02-18T11:37:54.944Z,93798.90
2019-02-18T11:40:23.216Z,93796.41
2019-02-18T11:42:52.349Z,93796.59
2019-02-18T11:45:20.215Z,93793.55
2019-02-18T11:47:48.688Z,93794.77
2019-02-18T11:50:17.375Z,93787.31
2019-02-18T11:52:45.663Z,93786.95
2019-02-18T11:55:13.818Z,93784.64
2019-02-18T11:57:42.523Z,93776.86
2019-02-18T12:00:11.327Z,93781.05
2019-02-18T12:02:40.204Z,93773.03
2019-02-18T12:05:08.820Z,93770.91
2019-02-18T12:07:40.220Z,93772.48
2019-02-18T12:10:09.024Z,93768.59
2019-02-18T12:12:38.079Z,93761.47
2019-02-18T12:15:07.131Z,93754.05
2019-02-18T12:17:35.544Z,93753.36
2019-02-18T12:20:03.813Z,93754.17
2019-02-18T12:22:32.581Z,93747.39
2019-02-18T12:25:00.851Z,93745.64
2019-02-18T12:27:32.069Z,93733.88
2019-02-18T12:30:06.243Z,93741.36
2019-02-18T12:32:34.530Z,93733.78
2019-02-18T12:35:03.139Z,93729.36
2019-02-18T12:37:31.511Z,93728.61
2019-02-18T12:40:00.378Z,93726.59
2019-02-18T12:42:28.660Z,93730.48
2019-02-18T12:45:16.018Z,93724.59
2019-02-18T12:47:44.800Z,93724.59
2019-02-18T12:50:13.524Z,93726.91
2019-02-18T12:52:42.285Z,93719.27
2019-02-18T12:55:10.378Z,93715.94
2019-02-18T12:57:47.044Z,93716.67
2019-02-18T13:00:34.327Z,93713.20
2019-02-18T13:03:14.365Z,93710.67
2019-02-18T13:05:42.574Z,93710.67
2019-02-18T13:08:10.475Z,93703.02
2019-02-18T13:10:39.269Z,93700.54
2019-02-18T13:13:07.642Z,93742.27
2019-02-18T13:15:35.622Z,93690.70
2019-02-18T13:20:32.424Z,93695.45
2019-02-18T13:23:00.349Z,93688.41
2019-02-18T13:25:29.050Z,93674.63
2019-02-18T13:28:16.359Z,93683.07
2019-02-18T13:30:55.697Z,93679.30
2019-02-18T13:33:23.673Z,93685.11
2019-02-18T13:36:00.391Z,93676.97
2019-02-18T13:38:29.111Z,93676.02
2019-02-18T13:40:57.015Z,93670.98
2019-02-18T13:43:25.780Z,93671.94
2019-02-18T13:45:54.426Z,93668.22
2019-02-18T13:48:23.167Z,93663.84
2019-02-18T13:50:51.914Z,93669.08
2019-02-18T13:53:19.854Z,93661.19
2019-02-18T13:55:48.036Z,93665.52
2019-02-18T13:58:16.606Z,93659.19
2019-02-18T14:00:44.889Z,93658.42
2019-02-18T14:03:13.493Z,93651.56
2019-02-18T14:05:42.343Z,93659.86
2019-02-18T14:08:10.368Z,93664.31
2019-02-18T14:10:39.161Z,93663.72
2019-02-18T14:13:07.013Z,93663.25
2019-02-18T14:15:35.306Z,93663.55
2019-02-18T14:18:03.495Z,93648.69
2019-02-18T14:20:31.713Z,93652.53
2019-02-18T14:22:59.651Z,93653.53
2019-02-18T14:25:27.903Z,93640.95
2019-02-18T14:27:55.808Z,93644.52
2019-02-18T14:30:43.355Z,93648.19
2019-02-18T14:33:11.200Z,93645.86
2019-02-18T14:35:39.254Z,93643.48
2019-02-18T14:38:07.140Z,93644.16
2019-02-18T14:40:35.527Z,93644.91
2019-02-18T14:43:03.518Z,93643.25
2019-02-18T14:45:31.985Z,93650.44
2019-02-18T14:48:00.274Z,93647.95
2019-02-18T14:50:36.548Z,93651.38
2019-02-18T14:53:05.025Z,93641.11
2019-02-18T14:55:33.310Z,93646.66
2019-02-18T14:58:01.240Z,93640.88
2019-02-18T15:00:29.850Z,93644.84
2019-02-18T15:02:58.089Z,93641.48
2019-02-18T15:05:26.226Z,93630.77
2019-02-18T15:07:54.769Z,93626.90
2019-02-18T15:10:23.414Z,93630.30
2019-02-18T15:12:51.219Z,93626.88
2019-02-18T15:15:19.150Z,93621.20
2019-02-18T15:17:47.439Z,93625.67
2019-02-18T15:20:15.724Z,93625.41
2019-02-18T15:22:42.919Z,93625.73
2019-02-18T15:25:30.495Z,93622.16
2019-02-18T15:27:58.515Z,93624.66
2019-02-18T15:30:27.374Z,93627.17
2019-02-18T15:32:55.959Z,93628.70
2019-02-18T15:35:24.249Z,93630.42
2019-02-18T15:37:52.265Z,93627.36
2019-02-18T15:43:16.942Z,93618.34
2019-02-18T15:45:45.296Z,93615.66
2019-02-18T15:48:13.678Z,93615.73
2019-02-18T15:50:41.613Z,93616.22
2019-02-18T15:53:10.314Z,93620.53
2019-02-18T15:59:01.935Z,93615.64
2019-02-18T16:01:29.560Z,93613.38
2019-02-18T16:04:05.864Z,93619.88
2019-02-18T16:06:33.925Z,93622.37
2019-02-18T16:09:02.470Z,93627.19
2019-02-18T16:11:30.730Z,93638.63
2019-02-18T16:13:58.724Z,93638.86
2019-02-18T16:16:26.786Z,93638.66
2019-02-18T16:19:03.074Z,93640.38
2019-02-18T16:21:31.863Z,93643.54
2019-02-18T16:24:00.149Z,93643.20
2019-02-18T16:26:28.373Z,93649.96
2019-02-18T16:28:56.196Z,93644.09
2019-02-18T16:31:24.859Z,93644.43
2019-02-18T16:33:53.502Z,93649.31
2019-02-18T16:36:21.941Z,93645.94
2019-02-18T16:38:58.825Z,93641.98
2019-02-18T16:41:27.432Z,93650.25
2019-02-18T16:43:55.718Z,93652.52
2019-02-18T16:46:24.596Z,93651.28
2019-02-18T16:49:04.366Z,93649.52
2019-02-18T16:51:32.885Z,93654.59
2019-02-18T16:54:01.676Z,93652.37
2019-02-18T16:56:30.438Z,93653.11
2019-02-18T16:58:59.351Z,93653.31
2019-02-18T17:01:28.006Z,93648.41
2019-02-18T17:03:56.704Z,93652.89
2019-02-18T17:06:25.088Z,93656.88
2019-02-18T17:08:53.060Z,93657.94
2019-02-18T17:11:21.426Z,93662.81
2019-02-18T17:13:49.594Z,93660.88
2019-02-18T17:16:17.790Z,93660.23
2019-02-18T17:18:46.390Z,93665.45
2019-02-18T17:21:14.874Z,93668.13
2019-02-18T17:23:43.161Z,93669.53
2019-02-18T17:26:11.435Z,93670.50
2019-02-18T17:28:39.449Z,93673.59
2019-02-18T17:31:07.910Z,93677.91
2019-02-18T17:33:36.435Z,93678.81
2019-02-18T17:36:04.374Z,93672.55
2019-02-18T17:38:32.554Z,93669.66
2019-02-18T17:41:01.545Z,93673.55
2019-02-18T17:43:29.390Z,93670.69
2019-02-18T17:45:58.003Z,93672.43
2019-02-18T17:48:34.655Z,93679.27
2019-02-18T17:51:02.963Z,93678.91
2019-02-18T17:53:30.935Z,93687.79
2019-02-18T17:55:59.125Z,93691.22
2019-02-18T17:58:27.499Z,93698.44
2019-02-18T18:03:51.299Z,93704.02
2019-02-18T18:06:19.166Z,93701.09
2019-02-18T18:08:47.576Z,93704.52
2019-02-18T18:11:15.521Z,93706.23
2019-02-18T18:13:55.219Z,93710.02
2019-02-18T18:16:23.453Z,93709.20
2019-02-18T18:18:51.714Z,93707.53
2019-02-18T18:21:19.730Z,93707.11
2019-02-18T18:23:48.410Z,93705.47
2019-02-18T18:26:16.784Z,93702.09
2019-02-18T18:28:45.054Z,93705.08
2019-02-18T18:31:12.570Z,93701.72
2019-02-18T18:33:40.603Z,93700.47
2019-02-18T18:36:09.205Z,93699.66
2019-02-18T18:38:37.500Z,93697.52
2019-02-18T18:41:05.789Z,93692.09
2019-02-18T18:43:42.819Z,93692.10
2019-02-18T18:46:10.761Z,93697.16
2019-02-18T18:48:39.520Z,93699.28
2019-02-18T18:51:07.789Z,93699.31
2019-02-18T18:53:36.488Z,93698.91
2019-02-18T18:56:04.860Z,93698.88
2019-02-18T18:58:33.489Z,93704.38
2019-02-18T19:01:01.824Z,93698.88
2019-02-18T19:03:30.103Z,93702.72
2019-02-18T19:05:58.403Z,93699.73
2019-02-18T19:08:26.986Z,93698.91
2019-02-18T19:10:54.929Z,93701.88
2019-02-18T19:13:31.163Z,93705.25
2019-02-18T19:15:59.205Z,93708.60
2019-02-18T19:18:27.506Z,93703.56
2019-02-18T19:20:55.866Z,93707.80
2019-02-18T19:23:23.475Z,93707.80
2019-02-18T19:25:51.921Z,93710.31
2019-02-18T19:28:19.808Z,93706.97
2019-02-18T19:30:48.094Z,93708.24
2019-02-18T19:33:16.855Z,93708.27
2019-02-18T19:35:44.937Z,93712.06
2019-02-18T19:38:13.038Z,93711.63
2019-02-18T19:40:41.422Z,93712.91
2019-02-18T19:43:09.209Z,93712.49
2019-02-18T19:45:36.781Z,93716.28
2019-02-18T19:48:04.724Z,93717.96
2019-02-18T19:50:32.295Z,93716.27
2019-02-18T19:53:00.590Z,93714.59
2019-02-18T19:55:28.942Z,93710.36
2019-02-18T19:58:05.593Z,93710.76
2019-02-18T20:00:33.900Z,93715.00
2019-02-18T20:03:02.571Z,93715.00
2019-02-18T20:05:30.930Z,93721.76
2019-02-18T20:07:59.297Z,93720.92
2019-02-18T20:10:27.654Z,93723.02
2019-02-18T20:12:56.435Z,93723.84
2019-02-18T20:15:25.156Z,93727.64
2019-02-18T20:17:53.704Z,93727.64
2019-02-18T20:20:22.373Z,93722.17
2019-02-18T20:22:50.676Z,93718.78
2019-02-18T20:25:18.985Z,93721.29
2019-02-18T20:27:59.227Z,93723.38
2019-02-18T20:30:28.020Z,93718.33
2019-02-18T20:32:56.912Z,93713.29
2019-02-18T20:35:25.222Z,93714.97
2019-02-18T20:37:53.989Z,93712.47
2019-02-18T20:40:22.990Z,93713.31
2019-02-18T20:42:51.303Z,93716.27
2019-02-18T20:45:18.959Z,93715.83
2019-02-18T20:47:47.329Z,93717.09
2019-02-18T20:50:15.615Z,93722.08
2019-02-18T20:52:43.161Z,93722.50
2019-02-18T20:55:11.145Z,93723.70
2019-02-18T20:57:39.431Z,93724.08
2019-02-18T21:02:52.926Z,93719.81
2019-02-18T21:05:21.273Z,93719.38
2019-02-18T21:07:49.514Z,93711.84
2019-02-18T21:10:24.962Z,93707.23
2019-02-18T21:12:53.619Z,93707.70
2019-02-18T21:15:22.494Z,93713.58
2019-02-18T21:17:51.161Z,93712.75
2019-02-18T21:20:19.816Z,93713.97
2019-02-18T21:22:48.685Z,93715.22
2019-02-18T21:25:17.279Z,93720.25
2019-02-18T21:27:45.960Z,93718.60
2019-02-18T21:30:14.192Z,93717.31
2019-02-18T21:32:42.563Z,93714.34
2019-02-18T21:35:10.975Z,93722.71
2019-02-18T21:37:39.244Z,93718.90
2019-02-18T21:40:27.195Z,93718.91
2019-02-18T21:42:55.006Z,93720.98
2019-02-18T21:45:24.063Z,93726.86
2019-02-18T21:47:52.860Z,93723.08
2019-02-18T21:50:22.124Z,93728.13
2019-02-18T21:52:50.748Z,93728.58
2019-02-18T21:55:19.062Z,93725.27
2019-02-18T21:58:06.909Z,93730.69
2019-02-18T22:00:47.139Z,93729.47
2019-02-18T22:06:31.765Z,93739.92
2019-02-18T22:09:00.155Z,93737.34
2019-02-18T22:11:29.304Z,93739.49
2019-02-18T22:13:58.004Z,93739.56
2019-02-18T22:16:26.551Z,93740.02
2019-02-18T22:19:35.130Z,93733.69
2019-02-18T22:22:03.738Z,93729.88
2019-02-18T22:24:31.622Z,93733.27
2019-02-18T22:26:59.796Z,93728.67
2019-02-18T22:32:36.211Z,93725.66
2019-02-18T22:35:04.441Z,93727.75
2019-02-18T22:37:41.212Z,93719.75
2019-02-18T22:40:21.155Z,93728.22
2019-02-18T22:42:49.451Z,93721.53
2019-02-18T22:45:17.771Z,93725.31
2019-02-18T22:47:45.722Z,93732.03
2019-02-18T22:50:22.530Z,93734.45
2019-02-18T22:52:51.350Z,93744.06
2019-02-18T22:55:20.013Z,93741.56
2019-02-18T22:57:48.038Z,93741.11
2019-02-18T23:03:37.357Z,93745.75
2019-02-18T23:06:05.725Z,93743.28
2019-02-18T23:08:34.404Z,93744.98
2019-02-18T23:11:02.568Z,93739.46
2019-02-18T23:13:30.809Z,93747.02
2019-02-18T23:15:59.452Z,93744.06
2019-02-18T23:18:27.727Z,93748.72
2019-02-18T23:20:55.946Z,93741.17
2019-02-18T23:23:23.888Z,93744.56
2019-02-18T23:25:52.046Z,93740.80
2019-02-18T23:28:20.512Z,93745.36
2019-02-18T23:30:48.495Z,93751.22
2019-02-18T23:33:16.707Z,93752.47
2019-02-18T23:35:45.301Z,93753.31
2019-02-18T23:38:13.921Z,93755.44
2019-02-18T23:40:42.616Z,93759.16
2019-02-18T23:43:10.850Z,93760.42
2019-02-18T23:45:39.444Z,93761.61
2019-02-18T23:48:07.874Z,93758.19
2019-02-18T23:50:36.194Z,93768.12
2019-02-18T23:53:04.221Z,93763.45
2019-02-18T23:55:32.823Z,93760.44
2019-02-18T23:58:01.140Z,93766.27
